sensor_id;sensor_type;location;lat;lon;timestamp;pressure;altitude;pressure_sealevel;temperature;humidity
7333;BME280;3707;43.618;25.342;2023-05-23T00:01:01;99911.66;;;17.87;100.00
7333;BME280;3707;43.618;25.342;2023-05-23T00:03:31;99902.97;;;17.82;100.00
7333;BME280;3707;43.618;25.342;2023-05-23T00:05:58;99902.31;;;17.69;100.00
7333;BME280;3707;43.618;25.342;2023-05-23T00:08:25;99904.09;;;17.67;100.00
7333;BME280;3707;43.618;25.342;2023-05-23T00:10:51;99901.38;;;17.73;100.00
7333;BME280;3707;43.618;25.342;2023-05-23T00:13:18;99885.06;;;17.55;100.00
7333;BME280;3707;43.618;25.342;2023-05-23T00:15:45;99894.84;;;17.44;100.00
7333;BME280;3707;43.618;25.342;2023-05-23T00:18:14;99897.13;;;17.66;100.00
7333;BME280;3707;43.618;25.342;2023-05-23T00:20:41;99887.75;;;17.50;100.00
7333;BME280;3707;43.618;25.342;2023-05-23T00:23:08;99894.94;;;17.38;100.00
7333;BME280;3707;43.618;25.342;2023-05-23T00:25:35;99893.19;;;17.38;100.00
7333;BME280;3707;43.618;25.342;2023-05-23T00:28:03;99865.31;;;17.32;100.00
7333;BME280;3707;43.618;25.342;2023-05-23T00:30:31;99862.72;;;17.32;100.00
7333;BME280;3707;43.618;25.342;2023-05-23T00:32:59;99898.16;;;17.58;100.00
7333;BME280;3707;43.618;25.342;2023-05-23T00:35:28;99899.03;;;17.57;100.00
7333;BME280;3707;43.618;25.342;2023-05-23T00:37:55;99908.97;;;17.35;100.00
7333;BME280;3707;43.618;25.342;2023-05-23T00:40:22;99898.41;;;17.38;100.00
7333;BME280;3707;43.618;25.342;2023-05-23T00:42:49;99908.41;;;17.15;100.00
7333;BME280;3707;43.618;25.342;2023-05-23T00:45:16;99895.31;;;17.13;100.00
7333;BME280;3707;43.618;25.342;2023-05-23T00:47:43;99908.25;;;17.24;100.00
7333;BME280;3707;43.618;25.342;2023-05-23T00:50:11;99894.31;;;17.20;100.00
7333;BME280;3707;43.618;25.342;2023-05-23T00:52:41;99907.31;;;17.28;100.00
7333;BME280;3707;43.618;25.342;2023-05-23T00:55:10;99888.56;;;16.97;100.00
7333;BME280;3707;43.618;25.342;2023-05-23T00:57:37;99883.13;;;17.09;100.00
7333;BME280;3707;43.618;25.342;2023-05-23T01:00:06;99876.03;;;17.17;100.00
7333;BME280;3707;43.618;25.342;2023-05-23T01:02:37;99894.75;;;17.48;100.00
7333;BME280;3707;43.618;25.342;2023-05-23T01:05:06;99900.09;;;17.44;100.00
7333;BME280;3707;43.618;25.342;2023-05-23T01:07:33;99900.97;;;17.43;100.00
7333;BME280;3707;43.618;25.342;2023-05-23T01:10:01;99900.09;;;17.44;100.00
7333;BME280;3707;43.618;25.342;2023-05-23T01:12:39;99902.72;;;17.42;100.00
7333;BME280;3707;43.618;25.342;2023-05-23T01:15:08;99896.78;;;17.32;100.00
7333;BME280;3707;43.618;25.342;2023-05-23T01:17:43;99889.91;;;17.25;100.00
7333;BME280;3707;43.618;25.342;2023-05-23T01:20:16;99905.56;;;17.28;100.00
7333;BME280;3707;43.618;25.342;2023-05-23T01:23:06;99907.31;;;17.29;100.00
7333;BME280;3707;43.618;25.342;2023-05-23T01:25:56;99896.72;;;17.35;100.00
7333;BME280;3707;43.618;25.342;2023-05-23T01:28:31;99889.06;;;17.22;100.00
7333;BME280;3707;43.618;25.342;2023-05-23T01:31:02;99820.78;;;16.74;100.00
7333;BME280;3707;43.618;25.342;2023-05-23T01:33:31;99895.25;;;17.18;100.00
7333;BME280;3707;43.618;25.342;2023-05-23T01:36:00;99893.53;;;17.15;100.00
7333;BME280;3707;43.618;25.342;2023-05-23T01:38:28;99892.88;;;17.01;100.00
7333;BME280;3707;43.618;25.342;2023-05-23T01:40:55;99893.81;;;16.97;100.00
7333;BME280;3707;43.618;25.342;2023-05-23T01:43:22;99889.44;;;16.98;100.00
7333;BME280;3707;43.618;25.342;2023-05-23T01:45:52;99888.56;;;16.97;100.00
7333;BME280;3707;43.618;25.342;2023-05-23T01:48:20;99887.81;;;16.89;100.00
7333;BME280;3707;43.618;25.342;2023-05-23T01:50:48;99881.78;;;16.81;100.00
7333;BME280;3707;43.618;25.342;2023-05-23T01:53:15;99879.31;;;16.72;100.00
7333;BME280;3707;43.618;25.342;2023-05-23T01:55:43;99893.28;;;16.72;100.00
7333;BME280;3707;43.618;25.342;2023-05-23T01:58:11;99890.56;;;16.77;100.00
7333;BME280;3707;43.618;25.342;2023-05-23T02:00:38;99880.28;;;16.65;100.00
7333;BME280;3707;43.618;25.342;2023-05-23T02:03:06;99886.28;;;16.70;100.00
7333;BME280;3707;43.618;25.342;2023-05-23T02:05:33;99896.84;;;16.65;100.00
7333;BME280;3707;43.618;25.342;2023-05-23T02:07:59;99899.47;;;16.64;100.00
7333;BME280;3707;43.618;25.342;2023-05-23T02:10:26;99903.84;;;16.63;100.00
7333;BME280;3707;43.618;25.342;2023-05-23T02:12:53;99905.53;;;16.66;100.00
7333;BME280;3707;43.618;25.342;2023-05-23T02:15:20;99912.56;;;16.62;100.00
7333;BME280;3707;43.618;25.342;2023-05-23T02:17:47;99907.41;;;16.56;100.00
7333;BME280;3707;43.618;25.342;2023-05-23T02:20:15;99901.25;;;16.62;100.00
7333;BME280;3707;43.618;25.342;2023-05-23T02:22:43;99903.97;;;16.51;100.00
7333;BME280;3707;43.618;25.342;2023-05-23T02:25:10;99915.38;;;16.47;100.00
7333;BME280;3707;43.618;25.342;2023-05-23T02:27:36;99910.06;;;16.52;100.00
7333;BME280;3707;43.618;25.342;2023-05-23T02:30:04;99920.47;;;16.61;100.00
7333;BME280;3707;43.618;25.342;2023-05-23T02:32:31;99917.06;;;16.48;100.00
7333;BME280;3707;43.618;25.342;2023-05-23T02:34:58;99911.84;;;16.50;100.00
7333;BME280;3707;43.618;25.342;2023-05-23T02:37:26;99901.50;;;16.41;100.00
7333;BME280;3707;43.618;25.342;2023-05-23T02:39:53;99921.47;;;16.46;100.00
7333;BME280;3707;43.618;25.342;2023-05-23T02:42:20;99930.13;;;16.54;100.00
7333;BME280;3707;43.618;25.342;2023-05-23T02:44:46;99917.06;;;16.50;100.00
7333;BME280;3707;43.618;25.342;2023-05-23T02:47:13;99940.63;;;16.50;100.00
7333;BME280;3707;43.618;25.342;2023-05-23T02:49:40;99927.53;;;16.50;100.00
7333;BME280;3707;43.618;25.342;2023-05-23T02:52:07;99928.53;;;16.40;100.00
7333;BME280;3707;43.618;25.342;2023-05-23T02:54:35;99922.53;;;16.27;100.00
7333;BME280;3707;43.618;25.342;2023-05-23T02:57:01;99920.84;;;16.24;100.00
7333;BME280;3707;43.618;25.342;2023-05-23T02:59:28;99910.53;;;16.09;100.00
7333;BME280;3707;43.618;25.342;2023-05-23T03:01:55;99927.84;;;16.22;100.00
7333;BME280;3707;43.618;25.342;2023-05-23T03:04:22;99928.72;;;16.21;100.00
7333;BME280;3707;43.618;25.342;2023-05-23T03:06:49;99927.75;;;16.31;100.00
7333;BME280;3707;43.618;25.342;2023-05-23T03:09:18;99932.06;;;16.35;100.00
7333;BME280;3707;43.618;25.342;2023-05-23T03:11:47;99928.50;;;16.43;100.00
7333;BME280;3707;43.618;25.342;2023-05-23T03:14:13;99925.94;;;16.36;100.00
7333;BME280;3707;43.618;25.342;2023-05-23T03:16:40;99929.28;;;16.51;100.00
7333;BME280;3707;43.618;25.342;2023-05-23T03:19:07;99931.69;;;16.72;100.00
7333;BME280;3707;43.618;25.342;2023-05-23T03:21:34;99933.25;;;16.87;100.00
7333;BME280;3707;43.618;25.342;2023-05-23T03:24:01;99931.16;;;17.10;100.00
7333;BME280;3707;43.618;25.342;2023-05-23T03:26:27;99923.97;;;17.24;100.00
7333;BME280;3707;43.618;25.342;2023-05-23T03:28:56;99938.03;;;17.78;100.00
7333;BME280;3707;43.618;25.342;2023-05-23T03:31:23;99948.91;;;18.06;100.00
7333;BME280;3707;43.618;25.342;2023-05-23T03:33:50;99941.28;;;18.40;100.00
7333;BME280;3707;43.618;25.342;2023-05-23T03:36:18;99935.44;;;18.71;100.00
7333;BME280;3707;43.618;25.342;2023-05-23T03:38:46;99912.06;;;19.01;100.00
7333;BME280;3707;43.618;25.342;2023-05-23T03:41:13;99957.84;;;19.67;100.00
7333;BME280;3707;43.618;25.342;2023-05-23T03:43:39;99968.88;;;20.17;100.00
7333;BME280;3707;43.618;25.342;2023-05-23T03:46:07;99974.88;;;20.88;100.00
7333;BME280;3707;43.618;25.342;2023-05-23T03:48:34;99973.53;;;21.34;100.00
7333;BME280;3707;43.618;25.342;2023-05-23T03:51:01;99972.66;;;21.90;100.00
7333;BME280;3707;43.618;25.342;2023-05-23T03:53:28;99983.44;;;22.35;100.00
7333;BME280;3707;43.618;25.342;2023-05-23T03:55:55;99980.09;;;22.55;97.25
7333;BME280;3707;43.618;25.342;2023-05-23T03:58:22;99982.69;;;22.56;93.14
7333;BME280;3707;43.618;25.342;2023-05-23T04:00:48;99975.13;;;22.46;92.49
7333;BME280;3707;43.618;25.342;2023-05-23T04:03:18;99991.84;;;22.96;90.59
7333;BME280;3707;43.618;25.342;2023-05-23T04:05:45;99997.66;;;23.05;88.28
7333;BME280;3707;43.618;25.342;2023-05-23T04:08:12;99983.44;;;22.85;87.92
7333;BME280;3707;43.618;25.342;2023-05-23T04:10:39;99992.03;;;23.14;87.19
7333;BME280;3707;43.618;25.342;2023-05-23T04:13:05;100010.97;;;23.04;87.12
7333;BME280;3707;43.618;25.342;2023-05-23T04:15:33;100009.22;;;22.53;89.99
7333;BME280;3707;43.618;25.342;2023-05-23T04:18:00;100007.38;;;22.31;91.91
7333;BME280;3707;43.618;25.342;2023-05-23T04:20:29;99984.06;;;21.63;96.77
7333;BME280;3707;43.618;25.342;2023-05-23T04:22:56;100003.28;;;21.39;100.00
7333;BME280;3707;43.618;25.342;2023-05-23T04:25:23;100003.25;;;21.11;100.00
7333;BME280;3707;43.618;25.342;2023-05-23T04:27:50;99999.94;;;20.40;100.00
7333;BME280;3707;43.618;25.342;2023-05-23T04:30:18;100009.06;;;20.25;100.00
7333;BME280;3707;43.618;25.342;2023-05-23T04:32:45;100009.63;;;20.02;100.00
7333;BME280;3707;43.618;25.342;2023-05-23T04:35:12;100005.13;;;19.72;100.00
7333;BME280;3707;43.618;25.342;2023-05-23T04:37:40;99985.53;;;19.47;100.00
7333;BME280;3707;43.618;25.342;2023-05-23T04:40:10;99977.72;;;19.44;100.00
7333;BME280;3707;43.618;25.342;2023-05-23T04:42:37;99997.16;;;19.75;100.00
7333;BME280;3707;43.618;25.342;2023-05-23T04:45:08;100013.53;;;20.55;100.00
7333;BME280;3707;43.618;25.342;2023-05-23T04:47:35;100012.81;;;21.13;100.00
7333;BME280;3707;43.618;25.342;2023-05-23T04:50:02;100011.06;;;21.43;100.00
7333;BME280;3707;43.618;25.342;2023-05-23T04:52:29;100007.59;;;21.41;100.00
7333;BME280;3707;43.618;25.342;2023-05-23T04:54:59;100014.78;;;22.19;100.00
7333;BME280;3707;43.618;25.342;2023-05-23T04:57:26;100009.38;;;22.98;93.25
7333;BME280;3707;43.618;25.342;2023-05-23T04:59:53;100011.72;;;23.76;88.28
7333;BME280;3707;43.618;25.342;2023-05-23T05:02:21;100015.66;;;24.31;83.69
7333;BME280;3707;43.618;25.342;2023-05-23T05:04:48;100006.38;;;24.41;79.66
7333;BME280;3707;43.618;25.342;2023-05-23T05:07:15;100022.94;;;24.46;79.56
7333;BME280;3707;43.618;25.342;2023-05-23T05:09:42;100017.53;;;24.89;76.93
7333;BME280;3707;43.618;25.342;2023-05-23T05:12:10;100022.97;;;25.25;74.50
7333;BME280;3707;43.618;25.342;2023-05-23T05:14:37;100024.53;;;25.10;75.12
7333;BME280;3707;43.618;25.342;2023-05-23T05:17:04;100026.19;;;25.13;72.43
7333;BME280;3707;43.618;25.342;2023-05-23T05:19:31;100019.31;;;25.65;73.01
7333;BME280;3707;43.618;25.342;2023-05-23T05:21:58;100018.81;;;25.76;67.41
7333;BME280;3707;43.618;25.342;2023-05-23T05:24:25;100022.31;;;25.76;68.49
7333;BME280;3707;43.618;25.342;2023-05-23T05:26:53;100024.72;;;25.82;67.44
7333;BME280;3707;43.618;25.342;2023-05-23T05:29:21;100023.94;;;25.97;66.48
7333;BME280;3707;43.618;25.342;2023-05-23T05:31:48;100009.06;;;25.39;65.90
7333;BME280;3707;43.618;25.342;2023-05-23T05:34:15;100030.91;;;25.44;66.68
7333;BME280;3707;43.618;25.342;2023-05-23T05:36:42;100025.94;;;25.75;66.40
7333;BME280;3707;43.618;25.342;2023-05-23T05:39:12;100027.56;;;25.96;65.79
7333;BME280;3707;43.618;25.342;2023-05-23T05:41:39;100020.47;;;26.14;64.54
7333;BME280;3707;43.618;25.342;2023-05-23T05:44:07;100018.25;;;26.05;64.18
7333;BME280;3707;43.618;25.342;2023-05-23T05:46:35;100028.94;;;25.86;66.11
7333;BME280;3707;43.618;25.342;2023-05-23T05:49:02;100018.50;;;25.07;68.93
7333;BME280;3707;43.618;25.342;2023-05-23T05:51:29;100023.28;;;24.38;74.60
7333;BME280;3707;43.618;25.342;2023-05-23T05:53:56;100007.03;;;23.82;79.48
7333;BME280;3707;43.618;25.342;2023-05-23T05:56:23;99990.72;;;23.93;81.23
7333;BME280;3707;43.618;25.342;2023-05-23T05:58:50;100012.16;;;24.50;79.12
7333;BME280;3707;43.618;25.342;2023-05-23T06:01:17;100023.66;;;24.69;78.81
7333;BME280;3707;43.618;25.342;2023-05-23T06:03:45;100012.81;;;24.76;78.51
7333;BME280;3707;43.618;25.342;2023-05-23T06:06:12;100027.72;;;24.98;74.49
7333;BME280;3707;43.618;25.342;2023-05-23T06:08:40;100031.81;;;24.45;79.04
7333;BME280;3707;43.618;25.342;2023-05-23T06:11:07;100024.59;;;24.48;80.90
7333;BME280;3707;43.618;25.342;2023-05-23T06:13:34;100026.06;;;24.55;78.70
7333;BME280;3707;43.618;25.342;2023-05-23T06:16:00;100020.59;;;24.18;81.69
7333;BME280;3707;43.618;25.342;2023-05-23T06:18:27;100005.03;;;23.44;87.18
7333;BME280;3707;43.618;25.342;2023-05-23T06:20:55;100021.19;;;24.03;84.81
7333;BME280;3707;43.618;25.342;2023-05-23T06:23:22;100024.03;;;23.77;85.23
7333;BME280;3707;43.618;25.342;2023-05-23T06:25:49;100025.44;;;23.63;85.48
7333;BME280;3707;43.618;25.342;2023-05-23T06:28:15;100030.38;;;23.03;86.87
7333;BME280;3707;43.618;25.342;2023-05-23T06:30:42;100030.91;;;22.63;90.75
7333;BME280;3707;43.618;25.342;2023-05-23T06:33:09;100030.69;;;22.94;90.87
7333;BME280;3707;43.618;25.342;2023-05-23T06:35:37;100017.19;;;23.01;92.58
7333;BME280;3707;43.618;25.342;2023-05-23T06:38:05;100026.63;;;22.85;92.48
7333;BME280;3707;43.618;25.342;2023-05-23T06:40:32;100028.00;;;22.72;91.43
7333;BME280;3707;43.618;25.342;2023-05-23T06:42:59;100012.59;;;22.32;94.33
7333;BME280;3707;43.618;25.342;2023-05-23T06:45:26;100021.84;;;22.45;99.80
7333;BME280;3707;43.618;25.342;2023-05-23T06:47:52;100002.28;;;22.51;100.00
7333;BME280;3707;43.618;25.342;2023-05-23T06:50:19;99999.47;;;22.04;100.00
7333;BME280;3707;43.618;25.342;2023-05-23T06:52:46;100010.91;;;22.30;99.31
7333;BME280;3707;43.618;25.342;2023-05-23T06:55:16;100003.44;;;22.68;100.00
7333;BME280;3707;43.618;25.342;2023-05-23T06:57:43;99993.50;;;22.75;100.00
7333;BME280;3707;43.618;25.342;2023-05-23T07:00:12;100004.59;;;22.60;100.00
7333;BME280;3707;43.618;25.342;2023-05-23T07:02:39;100006.50;;;22.55;99.82
7333;BME280;3707;43.618;25.342;2023-05-23T07:05:06;100003.81;;;23.06;100.00
7333;BME280;3707;43.618;25.342;2023-05-23T07:07:33;99988.25;;;23.21;91.97
7333;BME280;3707;43.618;25.342;2023-05-23T07:10:00;100005.19;;;23.84;91.66
7333;BME280;3707;43.618;25.342;2023-05-23T07:12:28;99997.94;;;23.89;88.81
7333;BME280;3707;43.618;25.342;2023-05-23T07:14:55;99995.84;;;23.76;84.61
7333;BME280;3707;43.618;25.342;2023-05-23T07:17:22;100009.56;;;24.07;82.05
7333;BME280;3707;43.618;25.342;2023-05-23T07:19:48;100006.22;;;23.80;85.34
7333;BME280;3707;43.618;25.342;2023-05-23T07:22:15;99999.31;;;23.76;84.84
7333;BME280;3707;43.618;25.342;2023-05-23T07:24:42;99996.00;;;23.93;83.23
7333;BME280;3707;43.618;25.342;2023-05-23T07:27:09;100010.97;;;24.15;82.69
7333;BME280;3707;43.618;25.342;2023-05-23T07:29:37;100008.22;;;23.75;81.81
7333;BME280;3707;43.618;25.342;2023-05-23T07:32:04;99990.16;;;23.63;84.41
7333;BME280;3707;43.618;25.342;2023-05-23T07:34:31;100004.94;;;23.47;85.16
7333;BME280;3707;43.618;25.342;2023-05-23T07:36:58;100007.25;;;23.54;85.99
7333;BME280;3707;43.618;25.342;2023-05-23T07:39:24;100009.38;;;23.68;86.19
7333;BME280;3707;43.618;25.342;2023-05-23T07:41:52;100013.94;;;23.86;86.41
7333;BME280;3707;43.618;25.342;2023-05-23T07:44:19;100006.22;;;23.80;89.85
7333;BME280;3707;43.618;25.342;2023-05-23T07:46:47;100002.59;;;23.61;87.44
7333;BME280;3707;43.618;25.342;2023-05-23T07:49:14;100009.00;;;23.55;89.54
7333;BME280;3707;43.618;25.342;2023-05-23T07:51:41;100000.78;;;23.40;88.00
7333;BME280;3707;43.618;25.342;2023-05-23T07:54:08;100009.41;;;23.45;86.92
7333;BME280;3707;43.618;25.342;2023-05-23T07:56:35;100005.03;;;23.44;89.36
7333;BME280;3707;43.618;25.342;2023-05-23T07:59:02;100000.88;;;23.60;87.64
7333;BME280;3707;43.618;25.342;2023-05-23T08:01:29;100000.16;;;23.78;88.02
7333;BME280;3707;43.618;25.342;2023-05-23T08:03:57;100000.50;;;23.91;84.09
7333;BME280;3707;43.618;25.342;2023-05-23T08:06:24;100000.59;;;24.09;82.86
7333;BME280;3707;43.618;25.342;2023-05-23T08:08:51;100002.56;;;24.04;81.86
7333;BME280;3707;43.618;25.342;2023-05-23T08:11:18;99997.41;;;24.23;81.50
7333;BME280;3707;43.618;25.342;2023-05-23T08:13:45;99996.72;;;24.40;80.27
7333;BME280;3707;43.618;25.342;2023-05-23T08:16:11;99990.72;;;24.55;77.62
7333;BME280;3707;43.618;25.342;2023-05-23T08:18:38;99987.13;;;24.76;76.11
7333;BME280;3707;43.618;25.342;2023-05-23T08:21:07;99992.56;;;24.73;74.13
7333;BME280;3707;43.618;25.342;2023-05-23T08:23:34;99988.28;;;24.30;75.73
7333;BME280;3707;43.618;25.342;2023-05-23T08:26:01;99989.59;;;24.20;76.96
7333;BME280;3707;43.618;25.342;2023-05-23T08:28:27;99988.69;;;24.41;75.57
7333;BME280;3707;43.618;25.342;2023-05-23T08:30:54;99984.66;;;24.33;75.21
7333;BME280;3707;43.618;25.342;2023-05-23T08:33:22;99981.03;;;24.13;76.83
7333;BME280;3707;43.618;25.342;2023-05-23T08:35:49;99977.34;;;24.58;76.07
7333;BME280;3707;43.618;25.342;2023-05-23T08:38:17;99972.91;;;24.58;74.21
7333;BME280;3707;43.618;25.342;2023-05-23T08:40:50;99977.47;;;24.95;77.10
7333;BME280;3707;43.618;25.342;2023-05-23T08:43:17;99980.31;;;24.91;74.07
7333;BME280;3707;43.618;25.342;2023-05-23T08:45:45;99970.41;;;24.94;72.34
7333;BME280;3707;43.618;25.342;2023-05-23T08:48:13;99970.16;;;25.00;71.77
7333;BME280;3707;43.618;25.342;2023-05-23T08:50:45;99971.09;;;25.18;71.56
7333;BME280;3707;43.618;25.342;2023-05-23T08:53:14;99972.28;;;24.92;69.43
7333;BME280;3707;43.618;25.342;2023-05-23T08:55:46;99982.03;;;24.92;72.00
7333;BME280;3707;43.618;25.342;2023-05-23T08:58:14;99977.59;;;24.92;70.48
7333;BME280;3707;43.618;25.342;2023-05-23T09:00:41;99973.50;;;24.85;70.53
7333;BME280;3707;43.618;25.342;2023-05-23T09:03:09;99974.16;;;25.09;71.73
7333;BME280;3707;43.618;25.342;2023-05-23T09:05:36;99972.75;;;25.21;69.41
7333;BME280;3707;43.618;25.342;2023-05-23T09:08:03;99976.53;;;25.15;67.23
7333;BME280;3707;43.618;25.342;2023-05-23T09:10:30;99976.38;;;25.37;68.30
7333;BME280;3707;43.618;25.342;2023-05-23T09:12:58;99971.03;;;25.57;65.69
7333;BME280;3707;43.618;25.342;2023-05-23T09:15:25;99967.00;;;25.48;66.14
7333;BME280;3707;43.618;25.342;2023-05-23T09:17:58;99973.81;;;25.16;67.48
7333;BME280;3707;43.618;25.342;2023-05-23T09:20:27;99966.28;;;25.07;67.33
7333;BME280;3707;43.618;25.342;2023-05-23T09:22:55;99957.59;;;24.85;71.92
7333;BME280;3707;43.618;25.342;2023-05-23T09:25:22;99950.78;;;25.17;70.38
7333;BME280;3707;43.618;25.342;2023-05-23T09:27:51;99957.97;;;25.52;67.90
7333;BME280;3707;43.618;25.342;2023-05-23T09:30:19;99953.75;;;25.84;69.48
7333;BME280;3707;43.618;25.342;2023-05-23T09:32:57;99951.53;;;26.11;64.59
7333;BME280;3707;43.618;25.342;2023-05-23T09:35:27;99955.00;;;25.77;65.95
7333;BME280;3707;43.618;25.342;2023-05-23T09:37:56;99957.06;;;25.89;64.84
7333;BME280;3707;43.618;25.342;2023-05-23T09:40:28;99955.38;;;25.87;66.14
7333;BME280;3707;43.618;25.342;2023-05-23T09:43:01;99950.03;;;26.23;66.05
7333;BME280;3707;43.618;25.342;2023-05-23T09:45:30;99938.03;;;25.80;63.30
7333;BME280;3707;43.618;25.342;2023-05-23T09:47:57;99933.59;;;25.97;63.83
7333;BME280;3707;43.618;25.342;2023-05-23T09:50:30;99953.56;;;26.57;63.94
7333;BME280;3707;43.618;25.342;2023-05-23T09:52:57;99953.97;;;26.50;62.98
7333;BME280;3707;43.618;25.342;2023-05-23T09:55:24;99946.22;;;26.45;62.10
7333;BME280;3707;43.618;25.342;2023-05-23T09:57:52;99948.63;;;26.50;60.63
7333;BME280;3707;43.618;25.342;2023-05-23T10:00:22;99951.78;;;26.74;59.39
7333;BME280;3707;43.618;25.342;2023-05-23T10:02:58;99944.75;;;26.73;61.06
7333;BME280;3707;43.618;25.342;2023-05-23T10:05:33;99942.88;;;26.75;59.97
7333;BME280;3707;43.618;25.342;2023-05-23T10:08:03;99944.56;;;26.76;59.58
7333;BME280;3707;43.618;25.342;2023-05-23T10:10:32;99941.69;;;26.80;59.78
7333;BME280;3707;43.618;25.342;2023-05-23T10:13:01;99931.97;;;27.12;59.25
7333;BME280;3707;43.618;25.342;2023-05-23T10:15:34;99935.25;;;27.17;59.17
7333;BME280;3707;43.618;25.342;2023-05-23T10:18:09;99936.97;;;27.34;58.05
7333;BME280;3707;43.618;25.342;2023-05-23T10:20:39;99936.97;;;27.65;57.84
7333;BME280;3707;43.618;25.342;2023-05-23T10:23:09;99928.88;;;27.20;55.93
7333;BME280;3707;43.618;25.342;2023-05-23T10:25:37;99910.94;;;27.07;56.26
7333;BME280;3707;43.618;25.342;2023-05-23T10:28:06;99918.94;;;27.07;55.11
7333;BME280;3707;43.618;25.342;2023-05-23T10:30:33;99924.16;;;27.40;55.02
7333;BME280;3707;43.618;25.342;2023-05-23T10:33:01;99918.56;;;27.76;55.12
7333;BME280;3707;43.618;25.342;2023-05-23T10:35:39;99927.03;;;27.98;54.46
7333;BME280;3707;43.618;25.342;2023-05-23T10:38:13;99920.78;;;27.84;54.15
7333;BME280;3707;43.618;25.342;2023-05-23T10:40:51;99925.53;;;28.38;51.65
7333;BME280;3707;43.618;25.342;2023-05-23T10:43:25;99918.47;;;28.37;51.32
7333;BME280;3707;43.618;25.342;2023-05-23T10:45:54;99924.16;;;28.01;51.37
7333;BME280;3707;43.618;25.342;2023-05-23T10:48:23;99916.38;;;27.53;51.86
7333;BME280;3707;43.618;25.342;2023-05-23T10:51:04;99889.34;;;27.43;52.68
7333;BME280;3707;43.618;25.342;2023-05-23T10:53:33;99901.41;;;27.50;53.87
7333;BME280;3707;43.618;25.342;2023-05-23T10:56:01;99920.03;;;27.66;51.54
7333;BME280;3707;43.618;25.342;2023-05-23T10:58:30;99917.97;;;28.01;51.76
7333;BME280;3707;43.618;25.342;2023-05-23T11:01:00;99923.13;;;28.04;50.87
7333;BME280;3707;43.618;25.342;2023-05-23T11:03:35;99908.50;;;27.81;50.10
7333;BME280;3707;43.618;25.342;2023-05-23T11:06:04;99907.59;;;27.96;50.58
7333;BME280;3707;43.618;25.342;2023-05-23T11:08:38;99903.31;;;28.68;49.35
7333;BME280;3707;43.618;25.342;2023-05-23T11:11:07;99917.81;;;28.62;49.36
7333;BME280;3707;43.618;25.342;2023-05-23T11:14:01;99908.22;;;28.45;50.05
7333;BME280;3707;43.618;25.342;2023-05-23T11:16:29;99902.59;;;28.50;49.28
7333;BME280;3707;43.618;25.342;2023-05-23T11:19:20;99895.94;;;28.57;48.23
7333;BME280;3707;43.618;25.342;2023-05-23T11:21:52;99898.94;;;28.37;49.74
7333;BME280;3707;43.618;25.342;2023-05-23T11:24:19;99893.16;;;27.55;49.13
7333;BME280;3707;43.618;25.342;2023-05-23T11:26:53;99900.31;;;27.84;49.69
7333;BME280;3707;43.618;25.342;2023-05-23T11:29:25;99894.00;;;27.40;50.28
7333;BME280;3707;43.618;25.342;2023-05-23T11:31:53;99895.50;;;27.45;50.43
7333;BME280;3707;43.618;25.342;2023-05-23T11:34:20;99851.78;;;27.18;50.79
7333;BME280;3707;43.618;25.342;2023-05-23T11:36:53;99890.81;;;27.33;50.80
7333;BME280;3707;43.618;25.342;2023-05-23T11:39:20;99900.72;;;27.31;51.17
7333;BME280;3707;43.618;25.342;2023-05-23T11:41:57;99916.00;;;27.59;52.71
7333;BME280;3707;43.618;25.342;2023-05-23T11:44:24;99910.31;;;27.81;51.35
7333;BME280;3707;43.618;25.342;2023-05-23T11:47:00;99905.53;;;27.25;49.82
7333;BME280;3707;43.618;25.342;2023-05-23T11:49:28;99900.34;;;27.69;49.57
7333;BME280;3707;43.618;25.342;2023-05-23T11:51:57;99878.44;;;27.93;48.79
7333;BME280;3707;43.618;25.342;2023-05-23T11:54:24;99887.91;;;27.99;47.51
7333;BME280;3707;43.618;25.342;2023-05-23T11:56:52;99892.38;;;27.98;47.67
7333;BME280;3707;43.618;25.342;2023-05-23T11:59:20;99887.78;;;28.00;46.69
7333;BME280;3707;43.618;25.342;2023-05-23T12:01:47;99876.97;;;27.74;47.47
7333;BME280;3707;43.618;25.342;2023-05-23T12:04:14;99873.25;;;28.06;47.88
7333;BME280;3707;43.618;25.342;2023-05-23T12:06:41;99883.50;;;28.14;46.73
7333;BME280;3707;43.618;25.342;2023-05-23T12:09:10;99879.13;;;28.41;46.67
7333;BME280;3707;43.618;25.342;2023-05-23T12:11:38;99858.56;;;28.43;46.79
7333;BME280;3707;43.618;25.342;2023-05-23T12:14:06;99853.25;;;27.99;47.63
7333;BME280;3707;43.618;25.342;2023-05-23T12:16:33;99880.28;;;27.32;49.61
7333;BME280;3707;43.618;25.342;2023-05-23T12:19:03;99882.34;;;27.27;49.68
7333;BME280;3707;43.618;25.342;2023-05-23T12:21:40;99884.22;;;26.93;50.09
7333;BME280;3707;43.618;25.342;2023-05-23T12:24:16;99874.94;;;27.00;50.58
7333;BME280;3707;43.618;25.342;2023-05-23T12:26:47;99889.56;;;26.76;50.57
7333;BME280;3707;43.618;25.342;2023-05-23T12:29:14;99885.31;;;25.89;51.69
7333;BME280;3707;43.618;25.342;2023-05-23T12:31:42;99880.16;;;25.86;51.57
7333;BME280;3707;43.618;25.342;2023-05-23T12:34:10;99879.34;;;26.01;51.40
7333;BME280;3707;43.618;25.342;2023-05-23T12:36:37;99848.19;;;25.88;51.04
7333;BME280;3707;43.618;25.342;2023-05-23T12:39:04;99874.47;;;26.44;50.57
7333;BME280;3707;43.618;25.342;2023-05-23T12:41:33;99870.06;;;26.60;50.12
7333;BME280;3707;43.618;25.342;2023-05-23T12:44:01;99872.28;;;26.52;50.99
7333;BME280;3707;43.618;25.342;2023-05-23T12:46:28;99856.22;;;26.03;51.89
7333;BME280;3707;43.618;25.342;2023-05-23T12:48:54;99862.91;;;26.45;51.43
7333;BME280;3707;43.618;25.342;2023-05-23T12:51:21;99868.41;;;26.90;50.79
7333;BME280;3707;43.618;25.342;2023-05-23T12:53:48;99870.59;;;26.99;51.74
7333;BME280;3707;43.618;25.342;2023-05-23T12:56:19;99884.53;;;27.66;49.01
7333;BME280;3707;43.618;25.342;2023-05-23T12:58:48;99875.13;;;27.60;49.08
7333;BME280;3707;43.618;25.342;2023-05-23T13:01:14;99867.66;;;27.81;46.30
7333;BME280;3707;43.618;25.342;2023-05-23T13:03:41;99798.69;;;27.46;46.34
7333;BME280;3707;43.618;25.342;2023-05-23T13:06:08;99884.75;;;27.92;45.67
7333;BME280;3707;43.618;25.342;2023-05-23T13:08:35;99868.91;;;27.44;45.92
7333;BME280;3707;43.618;25.342;2023-05-23T13:11:02;99885.97;;;28.17;45.98